Map

Track Data

SID SEASON NUMBER BASIN SUBBASIN NAME ISO_TIME NATURE LAT LON WMO_WIND WMO_PRES WMO_AGENCY TRACK_TYPE DIST2LAND LANDFALL IFLAG USA_AGENCY USA_ATCF_ID USA_LAT USA_LON USA_RECORD USA_STATUS USA_WIND USA_PRES USA_SSHS USA_R34_NE USA_R34_SE USA_R34_SW USA_R34_NW USA_R50_NE USA_R50_SE USA_R50_SW USA_R50_NW USA_R64_NE USA_R64_SE USA_R64_SW USA_R64_NW USA_POCI USA_ROCI USA_RMW USA_EYE TOKYO_LAT TOKYO_LON TOKYO_GRADE TOKYO_WIND TOKYO_PRES TOKYO_R50_DIR TOKYO_R50_LONG TOKYO_R50_SHORT TOKYO_R30_DIR TOKYO_R30_LONG TOKYO_R30_SHORT TOKYO_LAND CMA_LAT CMA_LON CMA_CAT CMA_WIND CMA_PRES HKO_LAT HKO_LON HKO_CAT HKO_WIND HKO_PRES NEWDELHI_LAT NEWDELHI_LON NEWDELHI_GRADE NEWDELHI_WIND NEWDELHI_PRES NEWDELHI_CI NEWDELHI_DP NEWDELHI_POCI REUNION_LAT REUNION_LON REUNION_TYPE REUNION_WIND REUNION_PRES REUNION_TNUM REUNION_CI REUNION_RMW REUNION_R34_NE REUNION_R34_SE REUNION_R34_SW REUNION_R34_NW REUNION_R50_NE REUNION_R50_SE REUNION_R50_SW REUNION_R50_NW REUNION_R64_NE REUNION_R64_SE REUNION_R64_SW REUNION_R64_NW BOM_LAT BOM_LON BOM_TYPE BOM_WIND BOM_PRES BOM_TNUM BOM_CI BOM_RMW BOM_R34_NE BOM_R34_SE BOM_R34_SW BOM_R34_NW BOM_R50_NE BOM_R50_SE BOM_R50_SW BOM_R50_NW BOM_R64_NE BOM_R64_SE BOM_R64_SW BOM_R64_NW BOM_ROCI BOM_POCI BOM_EYE BOM_POS_METHOD BOM_PRES_METHOD NADI_LAT NADI_LON NADI_CAT NADI_WIND NADI_PRES WELLINGTON_LAT WELLINGTON_LON WELLINGTON_WIND WELLINGTON_PRES DS824_LAT DS824_LON DS824_STAGE DS824_WIND DS824_PRES TD9636_LAT TD9636_LON TD9636_STAGE TD9636_WIND TD9636_PRES TD9635_LAT TD9635_LON TD9635_WIND TD9635_PRES TD9635_ROCI NEUMANN_LAT NEUMANN_LON NEUMANN_CLASS NEUMANN_WIND NEUMANN_PRES MLC_LAT MLC_LON MLC_CLASS MLC_WIND MLC_PRES USA_GUST BOM_GUST BOM_GUST_PER REUNION_GUST REUNION_GUST_PER USA_SEAHGT USA_SEARAD_NE USA_SEARAD_SE USA_SEARAD_SW USA_SEARAD_NW STORM_SPEED STORM_DIR
1997147S12168 1997 33 SP MM NOT_NAMED 1997-05-26 18:00:00 TS -12.1000 167.600 main 310 300 O___________O_ jtwc_sh SH371997 -12.1000 167.600 20 -1 -12.1000 167.600 TC 20 2 210
1997147S12168 1997 33 SP MM NOT_NAMED 1997-05-26 21:00:00 TS -12.2025 167.550 main 300 285 P___________P_ SH371997 -12.2025 167.550 22 -1 -12.2025 167.550 TC 22 2 207
1997147S12168 1997 33 SP MM NOT_NAMED 1997-05-27 00:00:00 TS -12.3000 167.500 main 285 275 O___________O_ jtwc_sh SH371997 -12.3000 167.500 25 -1 -12.3000 167.500 TC 25 2 207
1997147S12168 1997 33 SP MM NOT_NAMED 1997-05-27 03:00:00 TS -12.3925 167.450 main 275 261 P___________P_ SH371997 -12.3925 167.450 25 -1 -12.3925 167.450 TC 25 2 207
1997147S12168 1997 33 SP MM NOT_NAMED 1997-05-27 06:00:00 TS -12.5000 167.400 main 261 250 O___________O_ jtwc_sh SH371997 -12.5000 167.400 25 -1 -12.5000 167.400 TC 25 3 202
1997147S12168 1997 33 SP MM NOT_NAMED 1997-05-27 09:00:00 TS -12.6350 167.350 main 247 225 P___________P_ SH371997 -12.6350 167.350 25 -1 -12.6350 167.350 TC 25 3 197
1997147S12168 1997 33 SP MM NOT_NAMED 1997-05-27 12:00:00 TS -12.8000 167.300 main 225 201 O___________O_ jtwc_sh SH371997 -12.8000 167.300 25 -1 -12.8000 167.300 TC 25 4 196
1997147S12168 1997 33 SP MM NOT_NAMED 1997-05-27 15:00:00 TS -12.9850 167.243 main 201 180 P___________P_ SH371997 -12.9850 167.243 25 -1 -12.9850 167.243 TC 25 4 193
1997147S12168 1997 33 SP MM NOT_NAMED 1997-05-27 18:00:00 TS -13.2000 167.200 main 180 159 O___________O_ jtwc_sh SH371997 -13.2000 167.200 25 -1 -13.2000 167.200 TC 25 5 187
1997147S12168 1997 33 SP MM NOT_NAMED 1997-05-27 21:00:00 TS -13.4425 167.192 main 159 129 P___________P_ SH371997 -13.4425 167.192 25 -1 -13.4425 167.192 TC 25 5 178
1997147S12168 1997 33 SP MM NOT_NAMED 1997-05-28 00:00:00 TS -13.7000 167.200 main 129 110 O___________O_ jtwc_sh SH371997 -13.7000 167.200 25 -1 -13.7000 167.200 TC 25 5 182
1997147S12168 1997 33 SP MM NOT_NAMED 1997-05-28 03:00:00 TS -13.9425 167.185 main 110 85 P___________P_ SH371997 -13.9425 167.185 27 -1 -13.9425 167.185 TC 27 5 178
1997147S12168 1997 33 SP MM NOT_NAMED 1997-05-28 06:00:00 TS -14.2000 167.200 main 85 59 O___________O_ jtwc_sh SH371997 -14.2000 167.200 30 -1 -14.2000 167.200 TC 30 6 170
1997147S12168 1997 33 SP MM NOT_NAMED 1997-05-28 09:00:00 TS -14.4925 167.285 main 59 39 P___________P_ SH371997 -14.4925 167.285 30 -1 -14.4925 167.285 TC 30 6 162
1997147S12168 1997 33 SP MM NOT_NAMED 1997-05-28 12:00:00 TS -14.8000 167.400 main 39 34 O___________O_ jtwc_sh SH371997 -14.8000 167.400 30 -1 -14.8000 167.400 TC 30 6 161
1997147S12168 1997 33 SP MM NOT_NAMED 1997-05-28 15:00:00 TS -15.1000 167.500 main 42 42 P___________P_ SH371997 -15.1000 167.500 30 -1 -15.1000 167.500 TC 30 6 162
1997147S12168 1997 33 SP MM NOT_NAMED 1997-05-28 18:00:00 TS -15.4000 167.600 main 44 42 O___________O_ jtwc_sh SH371997 -15.4000 167.600 30 -1 -15.4000 167.600 TC 30 6 164
1997147S12168 1997 33 SP MM NOT_NAMED 1997-05-28 21:00:00 TS -15.7074 167.678 main 46 30 P___________P_ SH371997 -15.7074 167.678 32 -1 -15.7074 167.678 TC 32 6 162
1997147S12168 1997 33 SP MM NOT_NAMED 1997-05-29 00:00:00 TS -16.0000 167.800 main 30 15 O___________O_ jtwc_sh SH371997 -16.0000 167.800 35 0 -16.0000 167.800 TC 35 6 151
1997147S12168 1997 33 SP MM NOT_NAMED 1997-05-29 03:00:00 TS -16.2499 167.998 main 24 21 P___________P_ SH371997 -16.2499 167.998 35 0 -16.2499 167.998 TC 35 7 136
1997147S12168 1997 33 SP MM NOT_NAMED 1997-05-29 06:00:00 TS -16.5000 168.300 main 53 53 O___________O_ jtwc_sh SH371997 -16.5000 168.300 35 0 -16.5000 168.300 TC 35 9 128
1997147S12168 1997 33 SP MM NOT_NAMED 1997-05-29 09:00:00 TS -16.7925 168.713 main 98 98 P___________P_ SH371997 -16.7925 168.713 35 0 -16.7925 168.713 TC 35 11 125
1997147S12168 1997 33 SP MM NOT_NAMED 1997-05-29 12:00:00 TS -17.1000 169.200 main 159 159 O___________O_ jtwc_sh SH371997 -17.1000 169.200 35 0 -17.1000 169.200 TC 35 11 123
1997147S12168 1997 33 SP MM NOT_NAMED 1997-05-29 15:00:00 TS -17.3999 169.685 main 221 221 P___________P_ SH371997 -17.3999 169.685 35 0 -17.3999 169.685 TC 35 11 122
1997147S12168 1997 33 SP MM NOT_NAMED 1997-05-29 18:00:00 TS -17.7000 170.200 main 283 283 O___________O_ jtwc_sh SH371997 -17.7000 170.200 35 0 -17.7000 170.200 TC 35 12 121
1997147S12168 1997 33 SP MM NOT_NAMED 1997-05-29 21:00:00 TS -18.0000 170.750 main 354 354 P___________P_ SH371997 -18.0000 170.750 32 -1 -18.0000 170.750 TC 32 12 120
1997147S12168 1997 33 SP MM NOT_NAMED 1997-05-30 00:00:00 TS -18.3000 171.300 main 417 417 O___________O_ jtwc_sh SH371997 -18.3000 171.300 30 -1 -18.3000 171.300 TC 30 12 121
1997147S12168 1997 33 SP MM NOT_NAMED 1997-05-30 03:00:00 TS -18.6002 171.812 main 479 479 P___________P_ SH371997 -18.6002 171.812 27 -1 -18.6002 171.812 TC 27 11 122
1997147S12168 1997 33 SP MM NOT_NAMED 1997-05-30 06:00:00 TS -18.9000 172.300 main 526 O___________O_ jtwc_sh SH371997 -18.9000 172.300 25 -1 -18.9000 172.300 TC 25 11 123

Digital Typhoon Data and Search

About IBTrACS Database

This database is a web-friendly format of International Best Track Archive for Climate Stewardship (IBTrACS), a global best track data archive curated by NOAA dating back to 1842.

Updated: 2021-10-19